sensor_id;sensor_type;location;lat;lon;timestamp;temperature;humidity
13405;DHT22;6773;51.192;7.024;2023-03-04T00:03:43;2.90;99.90
13405;DHT22;6773;51.192;7.024;2023-03-04T00:06:08;2.90;99.90
13405;DHT22;6773;51.192;7.024;2023-03-04T00:08:34;3.00;99.90
13405;DHT22;6773;51.192;7.024;2023-03-04T00:11:00;3.00;99.90
13405;DHT22;6773;51.192;7.024;2023-03-04T00:13:25;3.00;99.90
13405;DHT22;6773;51.192;7.024;2023-03-04T00:15:52;3.00;99.90
13405;DHT22;6773;51.192;7.024;2023-03-04T00:18:18;1.80;99.90
13405;DHT22;6773;51.192;7.024;2023-03-04T00:20:45;3.00;99.90
13405;DHT22;6773;51.192;7.024;2023-03-04T00:23:11;3.10;99.90
13405;DHT22;6773;51.192;7.024;2023-03-04T00:25:36;3.00;99.90
13405;DHT22;6773;51.192;7.024;2023-03-04T00:28:02;3.00;99.90
13405;DHT22;6773;51.192;7.024;2023-03-04T00:30:28;3.00;99.90
13405;DHT22;6773;51.192;7.024;2023-03-04T00:32:53;3.10;99.90
13405;DHT22;6773;51.192;7.024;2023-03-04T00:35:19;3.10;99.90
13405;DHT22;6773;51.192;7.024;2023-03-04T00:37:45;3.10;99.90
13405;DHT22;6773;51.192;7.024;2023-03-04T00:40:11;3.10;99.90
13405;DHT22;6773;51.192;7.024;2023-03-04T00:42:36;3.10;99.90
13405;DHT22;6773;51.192;7.024;2023-03-04T00:45:02;3.10;99.90
13405;DHT22;6773;51.192;7.024;2023-03-04T00:47:28;3.00;99.90
13405;DHT22;6773;51.192;7.024;2023-03-04T00:49:54;3.00;99.90
13405;DHT22;6773;51.192;7.024;2023-03-04T00:54:45;3.10;99.90
13405;DHT22;6773;51.192;7.024;2023-03-04T00:57:11;3.00;99.90
13405;DHT22;6773;51.192;7.024;2023-03-04T00:59:36;3.20;99.90
13405;DHT22;6773;51.192;7.024;2023-03-04T01:02:02;3.10;99.90
13405;DHT22;6773;51.192;7.024;2023-03-04T01:09:19;3.20;99.90
13405;DHT22;6773;51.192;7.024;2023-03-04T01:11:45;3.10;99.90
13405;DHT22;6773;51.192;7.024;2023-03-04T01:19:03;3.20;99.90
13405;DHT22;6773;51.192;7.024;2023-03-04T01:21:28;3.20;99.90
13405;DHT22;6773;51.192;7.024;2023-03-04T01:23:54;3.20;99.90
13405;DHT22;6773;51.192;7.024;2023-03-04T01:28:45;3.20;99.90
13405;DHT22;6773;51.192;7.024;2023-03-04T01:31:11;3.20;99.90
13405;DHT22;6773;51.192;7.024;2023-03-04T01:36:03;3.10;99.90
13405;DHT22;6773;51.192;7.024;2023-03-04T01:38:28;3.20;99.90
13405;DHT22;6773;51.192;7.024;2023-03-04T01:43:28;3.20;99.90
13405;DHT22;6773;51.192;7.024;2023-03-04T01:45:54;3.30;99.90
13405;DHT22;6773;51.192;7.024;2023-03-04T01:48:26;3.30;99.90
13405;DHT22;6773;51.192;7.024;2023-03-04T01:50:52;3.30;99.90
13405;DHT22;6773;51.192;7.024;2023-03-04T01:53:26;3.30;99.90
13405;DHT22;6773;51.192;7.024;2023-03-04T01:56:10;3.30;99.90
13405;DHT22;6773;51.192;7.024;2023-03-04T01:58:36;3.30;99.90
13405;DHT22;6773;51.192;7.024;2023-03-04T02:01:01;3.40;99.90
13405;DHT22;6773;51.192;7.024;2023-03-04T02:03:27;3.40;99.90
13405;DHT22;6773;51.192;7.024;2023-03-04T02:05:54;3.40;99.90
13405;DHT22;6773;51.192;7.024;2023-03-04T02:08:22;3.40;99.90
13405;DHT22;6773;51.192;7.024;2023-03-04T02:13:15;3.40;99.90
13405;DHT22;6773;51.192;7.024;2023-03-04T02:15:41;3.40;99.90
13405;DHT22;6773;51.192;7.024;2023-03-04T02:18:19;3.40;99.90
13405;DHT22;6773;51.192;7.024;2023-03-04T02:26:24;3.50;99.90
13405;DHT22;6773;51.192;7.024;2023-03-04T02:28:51;3.50;99.90
13405;DHT22;6773;51.192;7.024;2023-03-04T02:31:33;3.60;99.90
13405;DHT22;6773;51.192;7.024;2023-03-04T02:34:04;3.50;99.90
13405;DHT22;6773;51.192;7.024;2023-03-04T02:36:31;3.50;99.90
13405;DHT22;6773;51.192;7.024;2023-03-04T02:39:06;3.60;99.90
13405;DHT22;6773;51.192;7.024;2023-03-04T02:41:32;3.60;99.90
13405;DHT22;6773;51.192;7.024;2023-03-04T02:43:58;3.60;99.90
13405;DHT22;6773;51.192;7.024;2023-03-04T02:46:24;3.60;99.90
13405;DHT22;6773;51.192;7.024;2023-03-04T02:48:50;3.60;99.90
13405;DHT22;6773;51.192;7.024;2023-03-04T02:53:42;3.60;99.90
13405;DHT22;6773;51.192;7.024;2023-03-04T02:56:08;3.60;99.90
13405;DHT22;6773;51.192;7.024;2023-03-04T02:58:33;3.60;99.90
13405;DHT22;6773;51.192;7.024;2023-03-04T03:00:59;3.70;99.90
13405;DHT22;6773;51.192;7.024;2023-03-04T03:03:25;3.60;99.90
13405;DHT22;6773;51.192;7.024;2023-03-04T03:05:51;3.60;99.90
13405;DHT22;6773;51.192;7.024;2023-03-04T03:08:17;3.60;99.90
13405;DHT22;6773;51.192;7.024;2023-03-04T03:10:43;3.70;99.90
13405;DHT22;6773;51.192;7.024;2023-03-04T03:13:09;3.70;99.90
13405;DHT22;6773;51.192;7.024;2023-03-04T03:15:34;3.70;99.90
13405;DHT22;6773;51.192;7.024;2023-03-04T03:18:00;3.60;99.90
13405;DHT22;6773;51.192;7.024;2023-03-04T03:20:26;3.60;99.90
13405;DHT22;6773;51.192;7.024;2023-03-04T03:22:51;3.60;99.90
13405;DHT22;6773;51.192;7.024;2023-03-04T03:27:43;3.70;99.90
13405;DHT22;6773;51.192;7.024;2023-03-04T03:30:11;3.70;99.90
13405;DHT22;6773;51.192;7.024;2023-03-04T03:32:37;3.70;99.90
13405;DHT22;6773;51.192;7.024;2023-03-04T03:35:03;3.70;99.90
13405;DHT22;6773;51.192;7.024;2023-03-04T03:37:28;3.70;99.90
13405;DHT22;6773;51.192;7.024;2023-03-04T03:39:54;3.80;99.90
13405;DHT22;6773;51.192;7.024;2023-03-04T03:42:20;3.70;99.90
13405;DHT22;6773;51.192;7.024;2023-03-04T03:44:45;3.80;99.90
13405;DHT22;6773;51.192;7.024;2023-03-04T03:47:11;3.70;99.90
13405;DHT22;6773;51.192;7.024;2023-03-04T03:49:36;3.70;99.90
13405;DHT22;6773;51.192;7.024;2023-03-04T03:52:02;3.80;99.90
13405;DHT22;6773;51.192;7.024;2023-03-04T03:54:28;3.70;99.90
13405;DHT22;6773;51.192;7.024;2023-03-04T03:56:54;3.70;99.90
13405;DHT22;6773;51.192;7.024;2023-03-04T03:59:19;3.70;99.90
13405;DHT22;6773;51.192;7.024;2023-03-04T04:01:45;3.80;99.90
13405;DHT22;6773;51.192;7.024;2023-03-04T04:04:10;3.80;99.90
13405;DHT22;6773;51.192;7.024;2023-03-04T04:09:02;3.90;99.90
13405;DHT22;6773;51.192;7.024;2023-03-04T04:11:28;3.90;99.90
13405;DHT22;6773;51.192;7.024;2023-03-04T04:21:11;3.90;99.90
13405;DHT22;6773;51.192;7.024;2023-03-04T04:23:38;3.90;99.90
13405;DHT22;6773;51.192;7.024;2023-03-04T04:26:03;3.90;99.90
13405;DHT22;6773;51.192;7.024;2023-03-04T04:28:29;3.90;99.90
13405;DHT22;6773;51.192;7.024;2023-03-04T04:30:55;4.00;99.90
13405;DHT22;6773;51.192;7.024;2023-03-04T04:35:46;3.80;99.90
13405;DHT22;6773;51.192;7.024;2023-03-04T04:38:12;3.80;99.90
13405;DHT22;6773;51.192;7.024;2023-03-04T04:40:38;3.90;99.90
13405;DHT22;6773;51.192;7.024;2023-03-04T04:43:03;3.90;99.90
13405;DHT22;6773;51.192;7.024;2023-03-04T04:47:55;3.90;99.90
13405;DHT22;6773;51.192;7.024;2023-03-04T04:50:22;3.90;99.90
13405;DHT22;6773;51.192;7.024;2023-03-04T04:52:48;3.90;99.90
13405;DHT22;6773;51.192;7.024;2023-03-04T04:55:14;3.90;99.90
13405;DHT22;6773;51.192;7.024;2023-03-04T05:00:06;3.90;99.90
13405;DHT22;6773;51.192;7.024;2023-03-04T05:02:32;4.00;99.90
13405;DHT22;6773;51.192;7.024;2023-03-04T05:05:03;4.00;99.90
13405;DHT22;6773;51.192;7.024;2023-03-04T05:07:28;3.90;99.90
13405;DHT22;6773;51.192;7.024;2023-03-04T05:09:54;3.90;99.90
13405;DHT22;6773;51.192;7.024;2023-03-04T05:14:46;4.00;99.90
13405;DHT22;6773;51.192;7.024;2023-03-04T05:17:11;4.00;99.90
13405;DHT22;6773;51.192;7.024;2023-03-04T05:19:37;3.90;99.90
13405;DHT22;6773;51.192;7.024;2023-03-04T05:22:02;3.90;99.90
13405;DHT22;6773;51.192;7.024;2023-03-04T05:24:28;3.90;99.90
13405;DHT22;6773;51.192;7.024;2023-03-04T05:26:53;3.90;99.90
13405;DHT22;6773;51.192;7.024;2023-03-04T05:29:19;3.90;99.90
13405;DHT22;6773;51.192;7.024;2023-03-04T05:31:45;3.80;99.90
13405;DHT22;6773;51.192;7.024;2023-03-04T05:34:10;3.90;99.90
13405;DHT22;6773;51.192;7.024;2023-03-04T05:36:36;3.90;99.90
13405;DHT22;6773;51.192;7.024;2023-03-04T05:39:02;3.90;99.90
13405;DHT22;6773;51.192;7.024;2023-03-04T05:41:27;3.90;99.90
13405;DHT22;6773;51.192;7.024;2023-03-04T05:43:53;3.80;99.90
13405;DHT22;6773;51.192;7.024;2023-03-04T05:46:19;3.90;99.90
13405;DHT22;6773;51.192;7.024;2023-03-04T05:48:50;3.90;99.90
13405;DHT22;6773;51.192;7.024;2023-03-04T05:56:14;3.90;99.90
13405;DHT22;6773;51.192;7.024;2023-03-04T05:58:40;3.80;99.90
13405;DHT22;6773;51.192;7.024;2023-03-04T06:01:06;3.80;99.90
13405;DHT22;6773;51.192;7.024;2023-03-04T06:03:31;3.80;99.90
13405;DHT22;6773;51.192;7.024;2023-03-04T06:05:57;3.90;99.90
13405;DHT22;6773;51.192;7.024;2023-03-04T06:08:23;3.80;99.90
13405;DHT22;6773;51.192;7.024;2023-03-04T06:10:52;3.90;99.90
13405;DHT22;6773;51.192;7.024;2023-03-04T06:13:17;3.80;99.90
13405;DHT22;6773;51.192;7.024;2023-03-04T06:15:43;3.90;99.90
13405;DHT22;6773;51.192;7.024;2023-03-04T06:18:09;3.90;99.90
13405;DHT22;6773;51.192;7.024;2023-03-04T06:20:35;3.90;99.90
13405;DHT22;6773;51.192;7.024;2023-03-04T06:23:00;3.90;99.90
13405;DHT22;6773;51.192;7.024;2023-03-04T06:30:18;4.00;99.90
13405;DHT22;6773;51.192;7.024;2023-03-04T06:32:44;4.00;99.90
13405;DHT22;6773;51.192;7.024;2023-03-04T06:35:12;3.90;99.90
13405;DHT22;6773;51.192;7.024;2023-03-04T06:37:38;4.00;99.90
13405;DHT22;6773;51.192;7.024;2023-03-04T06:40:04;3.90;99.90
13405;DHT22;6773;51.192;7.024;2023-03-04T06:42:32;4.00;99.90
13405;DHT22;6773;51.192;7.024;2023-03-04T06:44:57;4.00;99.90
13405;DHT22;6773;51.192;7.024;2023-03-04T06:47:23;4.00;99.90
13405;DHT22;6773;51.192;7.024;2023-03-04T06:49:49;4.10;99.90
13405;DHT22;6773;51.192;7.024;2023-03-04T06:54:40;4.00;99.90
13405;DHT22;6773;51.192;7.024;2023-03-04T06:57:06;4.00;99.90
13405;DHT22;6773;51.192;7.024;2023-03-04T06:59:32;4.00;99.90
13405;DHT22;6773;51.192;7.024;2023-03-04T07:04:23;4.10;99.90
13405;DHT22;6773;51.192;7.024;2023-03-04T07:06:49;4.00;99.90
13405;DHT22;6773;51.192;7.024;2023-03-04T07:09:15;4.10;99.90
13405;DHT22;6773;51.192;7.024;2023-03-04T07:11:41;4.10;99.90
13405;DHT22;6773;51.192;7.024;2023-03-04T07:14:07;4.10;99.90
13405;DHT22;6773;51.192;7.024;2023-03-04T07:16:33;4.10;99.90
13405;DHT22;6773;51.192;7.024;2023-03-04T07:18:58;4.10;99.90
13405;DHT22;6773;51.192;7.024;2023-03-04T07:26:16;4.10;99.90
13405;DHT22;6773;51.192;7.024;2023-03-04T07:28:42;4.20;99.90
13405;DHT22;6773;51.192;7.024;2023-03-04T07:33:34;4.10;99.90
13405;DHT22;6773;51.192;7.024;2023-03-04T07:36:00;4.20;99.90
13405;DHT22;6773;51.192;7.024;2023-03-04T07:38:25;4.20;99.90
13405;DHT22;6773;51.192;7.024;2023-03-04T07:40:57;4.20;99.90
13405;DHT22;6773;51.192;7.024;2023-03-04T07:45:49;4.30;99.90
13405;DHT22;6773;51.192;7.024;2023-03-04T07:48:15;4.30;99.90
13405;DHT22;6773;51.192;7.024;2023-03-04T07:50:40;4.30;99.90
13405;DHT22;6773;51.192;7.024;2023-03-04T07:55:32;4.50;99.90
13405;DHT22;6773;51.192;7.024;2023-03-04T07:57:58;4.40;99.90
13405;DHT22;6773;51.192;7.024;2023-03-04T08:00:24;4.50;99.90
13405;DHT22;6773;51.192;7.024;2023-03-04T08:02:50;4.50;99.90
13405;DHT22;6773;51.192;7.024;2023-03-04T08:10:08;4.50;99.90
13405;DHT22;6773;51.192;7.024;2023-03-04T08:12:35;4.60;99.90
13405;DHT22;6773;51.192;7.024;2023-03-04T08:15:00;4.60;99.90
13405;DHT22;6773;51.192;7.024;2023-03-04T08:17:26;4.60;99.90
13405;DHT22;6773;51.192;7.024;2023-03-04T08:24:46;4.60;99.90
13405;DHT22;6773;51.192;7.024;2023-03-04T08:27:11;4.70;99.90
13405;DHT22;6773;51.192;7.024;2023-03-04T08:29:37;4.80;99.90
13405;DHT22;6773;51.192;7.024;2023-03-04T08:34:29;4.80;99.90
13405;DHT22;6773;51.192;7.024;2023-03-04T08:36:55;4.90;99.90
13405;DHT22;6773;51.192;7.024;2023-03-04T08:39:21;4.80;99.90
13405;DHT22;6773;51.192;7.024;2023-03-04T08:41:48;5.00;99.90
13405;DHT22;6773;51.192;7.024;2023-03-04T08:44:14;5.00;99.90
13405;DHT22;6773;51.192;7.024;2023-03-04T08:46:41;5.00;99.90
13405;DHT22;6773;51.192;7.024;2023-03-04T08:49:07;5.00;99.90
13405;DHT22;6773;51.192;7.024;2023-03-04T08:51:34;5.00;99.90
13405;DHT22;6773;51.192;7.024;2023-03-04T08:54:04;5.00;99.90
13405;DHT22;6773;51.192;7.024;2023-03-04T08:56:29;5.10;99.90
13405;DHT22;6773;51.192;7.024;2023-03-04T08:58:55;5.30;99.90
13405;DHT22;6773;51.192;7.024;2023-03-04T09:01:21;5.30;99.90
13405;DHT22;6773;51.192;7.024;2023-03-04T09:06:15;5.40;99.90
13405;DHT22;6773;51.192;7.024;2023-03-04T09:08:41;5.50;99.90
13405;DHT22;6773;51.192;7.024;2023-03-04T09:11:08;5.30;99.90
13405;DHT22;6773;51.192;7.024;2023-03-04T09:13:33;5.40;99.90
13405;DHT22;6773;51.192;7.024;2023-03-04T09:15:59;5.30;99.90
13405;DHT22;6773;51.192;7.024;2023-03-04T09:18:26;5.40;99.90
13405;DHT22;6773;51.192;7.024;2023-03-04T09:20:52;5.50;99.90
13405;DHT22;6773;51.192;7.024;2023-03-04T09:25:45;5.30;99.90
13405;DHT22;6773;51.192;7.024;2023-03-04T09:28:12;5.40;99.90
13405;DHT22;6773;51.192;7.024;2023-03-04T09:30:38;5.50;99.90
13405;DHT22;6773;51.192;7.024;2023-03-04T09:33:03;5.60;99.90
13405;DHT22;6773;51.192;7.024;2023-03-04T09:35:29;5.60;99.90
13405;DHT22;6773;51.192;7.024;2023-03-04T09:40:25;5.40;99.90
13405;DHT22;6773;51.192;7.024;2023-03-04T09:43:02;5.20;99.90
13405;DHT22;6773;51.192;7.024;2023-03-04T09:45:42;5.00;99.90
13405;DHT22;6773;51.192;7.024;2023-03-04T09:48:14;4.90;99.90
13405;DHT22;6773;51.192;7.024;2023-03-04T09:50:48;4.90;99.90
13405;DHT22;6773;51.192;7.024;2023-03-04T09:54:00;5.00;99.90
13405;DHT22;6773;51.192;7.024;2023-03-04T09:56:15;5.00;99.90
13405;DHT22;6773;51.192;7.024;2023-03-04T10:01:39;4.90;99.90
13405;DHT22;6773;51.192;7.024;2023-03-04T10:06:42;5.00;99.90
13405;DHT22;6773;51.192;7.024;2023-03-04T10:11:44;5.10;99.90
13405;DHT22;6773;51.192;7.024;2023-03-04T10:19:47;5.20;99.90
13405;DHT22;6773;51.192;7.024;2023-03-04T10:24:53;4.90;99.90
13405;DHT22;6773;51.192;7.024;2023-03-04T10:27:20;5.00;99.90
13405;DHT22;6773;51.192;7.024;2023-03-04T10:32:17;5.10;99.90
13405;DHT22;6773;51.192;7.024;2023-03-04T10:34:43;5.40;99.90
13405;DHT22;6773;51.192;7.024;2023-03-04T10:37:09;5.60;99.90
13405;DHT22;6773;51.192;7.024;2023-03-04T10:39:42;5.60;99.90
13405;DHT22;6773;51.192;7.024;2023-03-04T10:44:51;6.00;99.90
13405;DHT22;6773;51.192;7.024;2023-03-04T10:47:17;6.20;99.90
13405;DHT22;6773;51.192;7.024;2023-03-04T10:50:01;6.20;99.90
13405;DHT22;6773;51.192;7.024;2023-03-04T10:54:58;6.70;99.90
13405;DHT22;6773;51.192;7.024;2023-03-04T10:57:39;7.20;99.90
13405;DHT22;6773;51.192;7.024;2023-03-04T11:06:20;6.80;99.90
13405;DHT22;6773;51.192;7.024;2023-03-04T11:08:57;6.70;99.90
13405;DHT22;6773;51.192;7.024;2023-03-04T11:11:40;6.50;99.90
13405;DHT22;6773;51.192;7.024;2023-03-04T11:16:52;6.50;99.90
13405;DHT22;6773;51.192;7.024;2023-03-04T11:19:19;6.50;99.90
13405;DHT22;6773;51.192;7.024;2023-03-04T11:21:46;6.50;99.90
13405;DHT22;6773;51.192;7.024;2023-03-04T11:24:33;6.50;99.90
13405;DHT22;6773;51.192;7.024;2023-03-04T11:27:02;6.40;99.90
13405;DHT22;6773;51.192;7.024;2023-03-04T11:29:37;6.30;99.90
13405;DHT22;6773;51.192;7.024;2023-03-04T11:32:17;6.30;99.90
13405;DHT22;6773;51.192;7.024;2023-03-04T11:34:52;6.20;99.90
13405;DHT22;6773;51.192;7.024;2023-03-04T11:37:38;6.20;99.90
13405;DHT22;6773;51.192;7.024;2023-03-04T11:43:05;6.20;99.90
13405;DHT22;6773;51.192;7.024;2023-03-04T11:48:39;6.30;99.90
13405;DHT22;6773;51.192;7.024;2023-03-04T11:51:20;6.20;99.90
13405;DHT22;6773;51.192;7.024;2023-03-04T11:56:40;6.20;99.90
13405;DHT22;6773;51.192;7.024;2023-03-04T12:10:41;6.60;99.90
13405;DHT22;6773;51.192;7.024;2023-03-04T12:13:34;7.00;99.90
13405;DHT22;6773;51.192;7.024;2023-03-04T12:16:09;7.20;99.90
13405;DHT22;6773;51.192;7.024;2023-03-04T12:22:01;7.40;99.90
13405;DHT22;6773;51.192;7.024;2023-03-04T12:32:47;7.00;99.90
13405;DHT22;6773;51.192;7.024;2023-03-04T12:43:30;6.70;99.90
13405;DHT22;6773;51.192;7.024;2023-03-04T12:46:35;6.60;99.90
13405;DHT22;6773;51.192;7.024;2023-03-04T12:49:06;6.50;99.90
13405;DHT22;6773;51.192;7.024;2023-03-04T12:54:33;6.40;99.90
13405;DHT22;6773;51.192;7.024;2023-03-04T12:57:03;6.50;99.90
13405;DHT22;6773;51.192;7.024;2023-03-04T12:59:56;6.50;99.90
13405;DHT22;6773;51.192;7.024;2023-03-04T13:02:38;6.50;99.90
13405;DHT22;6773;51.192;7.024;2023-03-04T13:10:35;7.00;99.90
13405;DHT22;6773;51.192;7.024;2023-03-04T13:13:01;7.00;99.90
13405;DHT22;6773;51.192;7.024;2023-03-04T13:15:34;7.00;99.90
13405;DHT22;6773;51.192;7.024;2023-03-04T13:23:32;7.00;99.90
13405;DHT22;6773;51.192;7.024;2023-03-04T13:28:29;6.90;99.90
13405;DHT22;6773;51.192;7.024;2023-03-04T13:43:46;6.40;99.90
13405;DHT22;6773;51.192;7.024;2023-03-04T13:51:39;6.30;99.90
13405;DHT22;6773;51.192;7.024;2023-03-04T13:56:47;6.20;99.90
13405;DHT22;6773;51.192;7.024;2023-03-04T13:59:21;6.30;99.90
13405;DHT22;6773;51.192;7.024;2023-03-04T14:04:22;6.30;99.90
13405;DHT22;6773;51.192;7.024;2023-03-04T14:06:52;6.30;99.90
13405;DHT22;6773;51.192;7.024;2023-03-04T14:09:27;6.40;99.90
13405;DHT22;6773;51.192;7.024;2023-03-04T14:11:56;6.40;99.90
13405;DHT22;6773;51.192;7.024;2023-03-04T14:14:46;6.60;99.90
13405;DHT22;6773;51.192;7.024;2023-03-04T14:17:19;6.60;99.90
13405;DHT22;6773;51.192;7.024;2023-03-04T14:19:47;6.60;99.90
13405;DHT22;6773;51.192;7.024;2023-03-04T14:25:05;6.60;99.90
13405;DHT22;6773;51.192;7.024;2023-03-04T14:27:34;6.70;99.90
13405;DHT22;6773;51.192;7.024;2023-03-04T14:32:46;6.60;99.90
13405;DHT22;6773;51.192;7.024;2023-03-04T14:35:29;6.60;99.90
13405;DHT22;6773;51.192;7.024;2023-03-04T14:37:59;6.60;99.90
13405;DHT22;6773;51.192;7.024;2023-03-04T14:40:30;6.50;99.90
13405;DHT22;6773;51.192;7.024;2023-03-04T14:43:04;6.50;99.90
13405;DHT22;6773;51.192;7.024;2023-03-04T14:45:30;6.50;99.90
13405;DHT22;6773;51.192;7.024;2023-03-04T14:48:03;6.50;99.90
13405;DHT22;6773;51.192;7.024;2023-03-04T14:50:30;6.50;99.90
13405;DHT22;6773;51.192;7.024;2023-03-04T14:55:34;6.40;99.90
13405;DHT22;6773;51.192;7.024;2023-03-04T14:58:18;6.40;99.90
13405;DHT22;6773;51.192;7.024;2023-03-04T15:00:45;6.40;99.90
13405;DHT22;6773;51.192;7.024;2023-03-04T15:03:26;6.40;99.90
13405;DHT22;6773;51.192;7.024;2023-03-04T15:05:53;6.40;99.90
13405;DHT22;6773;51.192;7.024;2023-03-04T15:08:27;6.40;99.90
13405;DHT22;6773;51.192;7.024;2023-03-04T15:11:04;6.40;99.90
13405;DHT22;6773;51.192;7.024;2023-03-04T15:13:49;6.40;99.90
13405;DHT22;6773;51.192;7.024;2023-03-04T15:16:17;6.40;99.90
13405;DHT22;6773;51.192;7.024;2023-03-04T15:19:23;6.40;99.90
13405;DHT22;6773;51.192;7.024;2023-03-04T15:21:49;6.40;99.90
13405;DHT22;6773;51.192;7.024;2023-03-04T15:24:15;6.40;99.90
13405;DHT22;6773;51.192;7.024;2023-03-04T15:26:43;6.40;99.90
13405;DHT22;6773;51.192;7.024;2023-03-04T15:29:16;6.40;99.90
13405;DHT22;6773;51.192;7.024;2023-03-04T15:31:42;6.40;99.90
13405;DHT22;6773;51.192;7.024;2023-03-04T15:34:13;6.40;99.90
13405;DHT22;6773;51.192;7.024;2023-03-04T15:36:40;6.40;99.90
13405;DHT22;6773;51.192;7.024;2023-03-04T15:39:05;6.40;99.90
13405;DHT22;6773;51.192;7.024;2023-03-04T15:41:31;6.40;99.90
13405;DHT22;6773;51.192;7.024;2023-03-04T15:43:57;6.40;99.90
13405;DHT22;6773;51.192;7.024;2023-03-04T15:46:22;6.40;99.90
13405;DHT22;6773;51.192;7.024;2023-03-04T15:48:49;6.40;99.90
13405;DHT22;6773;51.192;7.024;2023-03-04T15:51:18;6.40;99.90
13405;DHT22;6773;51.192;7.024;2023-03-04T15:53:49;6.30;99.90
13405;DHT22;6773;51.192;7.024;2023-03-04T15:56:31;6.30;99.90
13405;DHT22;6773;51.192;7.024;2023-03-04T15:59:12;6.30;99.90
13405;DHT22;6773;51.192;7.024;2023-03-04T16:04:07;6.30;99.90
13405;DHT22;6773;51.192;7.024;2023-03-04T16:06:34;6.30;99.90
13405;DHT22;6773;51.192;7.024;2023-03-04T16:11:28;6.30;99.90
13405;DHT22;6773;51.192;7.024;2023-03-04T16:13:54;6.30;99.90
13405;DHT22;6773;51.192;7.024;2023-03-04T16:16:20;6.30;99.90
13405;DHT22;6773;51.192;7.024;2023-03-04T16:21:17;6.20;99.90
13405;DHT22;6773;51.192;7.024;2023-03-04T16:23:45;6.10;99.90
13405;DHT22;6773;51.192;7.024;2023-03-04T16:26:14;6.00;99.90
13405;DHT22;6773;51.192;7.024;2023-03-04T16:28:40;6.00;99.90
13405;DHT22;6773;51.192;7.024;2023-03-04T16:31:06;5.90;99.90
13405;DHT22;6773;51.192;7.024;2023-03-04T16:35:58;5.80;99.90
13405;DHT22;6773;51.192;7.024;2023-03-04T16:38:30;5.70;99.90
13405;DHT22;6773;51.192;7.024;2023-03-04T16:40:57;5.70;99.90
13405;DHT22;6773;51.192;7.024;2023-03-04T16:43:24;5.70;99.90
13405;DHT22;6773;51.192;7.024;2023-03-04T16:45:50;5.60;99.90
13405;DHT22;6773;51.192;7.024;2023-03-04T16:48:16;5.60;99.90
13405;DHT22;6773;51.192;7.024;2023-03-04T16:50:42;5.60;99.90
13405;DHT22;6773;51.192;7.024;2023-03-04T16:53:34;5.60;99.90
13405;DHT22;6773;51.192;7.024;2023-03-04T16:56:04;5.60;99.90
13405;DHT22;6773;51.192;7.024;2023-03-04T16:58:30;5.60;99.90
13405;DHT22;6773;51.192;7.024;2023-03-04T17:00:55;5.60;99.90
13405;DHT22;6773;51.192;7.024;2023-03-04T17:03:21;5.50;99.90
13405;DHT22;6773;51.192;7.024;2023-03-04T17:05:47;5.50;99.90
13405;DHT22;6773;51.192;7.024;2023-03-04T17:13:05;5.50;99.90
13405;DHT22;6773;51.192;7.024;2023-03-04T17:15:31;5.50;99.90
13405;DHT22;6773;51.192;7.024;2023-03-04T17:17:56;5.50;99.90
13405;DHT22;6773;51.192;7.024;2023-03-04T17:20:22;5.60;99.90
13405;DHT22;6773;51.192;7.024;2023-03-04T17:22:48;5.60;99.90
13405;DHT22;6773;51.192;7.024;2023-03-04T17:25:14;5.60;99.90
13405;DHT22;6773;51.192;7.024;2023-03-04T17:27:40;5.60;99.90
13405;DHT22;6773;51.192;7.024;2023-03-04T17:30:08;5.60;99.90
13405;DHT22;6773;51.192;7.024;2023-03-04T17:32:34;5.60;99.90
13405;DHT22;6773;51.192;7.024;2023-03-04T17:35:00;5.50;99.90
13405;DHT22;6773;51.192;7.024;2023-03-04T17:37:26;5.60;99.90
13405;DHT22;6773;51.192;7.024;2023-03-04T17:39:52;5.50;99.90
13405;DHT22;6773;51.192;7.024;2023-03-04T17:42:18;5.60;99.90
13405;DHT22;6773;51.192;7.024;2023-03-04T17:44:43;5.50;99.90
13405;DHT22;6773;51.192;7.024;2023-03-04T17:47:10;5.50;99.90
13405;DHT22;6773;51.192;7.024;2023-03-04T17:49:36;5.60;99.90
13405;DHT22;6773;51.192;7.024;2023-03-04T17:52:03;5.50;99.90
13405;DHT22;6773;51.192;7.024;2023-03-04T17:54:30;5.60;99.90
13405;DHT22;6773;51.192;7.024;2023-03-04T17:56:56;5.60;99.90
13405;DHT22;6773;51.192;7.024;2023-03-04T17:59:23;5.60;99.90
13405;DHT22;6773;51.192;7.024;2023-03-04T18:01:49;5.60;99.90
13405;DHT22;6773;51.192;7.024;2023-03-04T18:04:14;5.60;99.90
13405;DHT22;6773;51.192;7.024;2023-03-04T18:06:40;5.60;99.90
13405;DHT22;6773;51.192;7.024;2023-03-04T18:09:06;5.60;99.90
13405;DHT22;6773;51.192;7.024;2023-03-04T18:11:34;5.60;99.90
13405;DHT22;6773;51.192;7.024;2023-03-04T18:14:00;5.60;99.90
13405;DHT22;6773;51.192;7.024;2023-03-04T18:16:26;5.60;99.90
13405;DHT22;6773;51.192;7.024;2023-03-04T18:18:54;5.60;99.90
13405;DHT22;6773;51.192;7.024;2023-03-04T18:21:22;5.50;99.90
13405;DHT22;6773;51.192;7.024;2023-03-04T18:23:49;5.50;99.90
13405;DHT22;6773;51.192;7.024;2023-03-04T18:26:15;5.50;99.90
13405;DHT22;6773;51.192;7.024;2023-03-04T18:28:41;5.60;99.90
13405;DHT22;6773;51.192;7.024;2023-03-04T18:31:07;5.60;99.90
13405;DHT22;6773;51.192;7.024;2023-03-04T18:33:35;5.60;99.90
13405;DHT22;6773;51.192;7.024;2023-03-04T18:36:06;5.60;99.90
13405;DHT22;6773;51.192;7.024;2023-03-04T18:38:32;5.60;99.90
13405;DHT22;6773;51.192;7.024;2023-03-04T18:40:59;5.60;99.90
13405;DHT22;6773;51.192;7.024;2023-03-04T18:43:25;5.60;99.90
13405;DHT22;6773;51.192;7.024;2023-03-04T18:46:10;5.70;99.90
13405;DHT22;6773;51.192;7.024;2023-03-04T18:48:44;5.70;99.90
13405;DHT22;6773;51.192;7.024;2023-03-04T18:51:11;5.70;99.90
13405;DHT22;6773;51.192;7.024;2023-03-04T18:53:36;5.60;99.90
13405;DHT22;6773;51.192;7.024;2023-03-04T18:56:20;5.60;99.90
13405;DHT22;6773;51.192;7.024;2023-03-04T18:58:48;5.50;99.90
13405;DHT22;6773;51.192;7.024;2023-03-04T19:01:19;5.50;99.90
13405;DHT22;6773;51.192;7.024;2023-03-04T19:03:45;5.50;99.90
13405;DHT22;6773;51.192;7.024;2023-03-04T19:08:37;5.40;99.90
13405;DHT22;6773;51.192;7.024;2023-03-04T19:11:03;5.40;99.90
13405;DHT22;6773;51.192;7.024;2023-03-04T19:13:31;5.40;99.90
13405;DHT22;6773;51.192;7.024;2023-03-04T19:15:57;5.40;99.90
13405;DHT22;6773;51.192;7.024;2023-03-04T19:18:24;5.40;99.90
13405;DHT22;6773;51.192;7.024;2023-03-04T19:20:50;5.40;99.90
13405;DHT22;6773;51.192;7.024;2023-03-04T19:23:16;5.40;99.90
13405;DHT22;6773;51.192;7.024;2023-03-04T19:25:42;5.40;99.90
13405;DHT22;6773;51.192;7.024;2023-03-04T19:28:09;5.50;99.90
13405;DHT22;6773;51.192;7.024;2023-03-04T19:30:39;5.30;99.90
13405;DHT22;6773;51.192;7.024;2023-03-04T19:33:04;5.30;99.90
13405;DHT22;6773;51.192;7.024;2023-03-04T19:35:31;5.40;99.90
13405;DHT22;6773;51.192;7.024;2023-03-04T19:40:27;5.30;99.90
13405;DHT22;6773;51.192;7.024;2023-03-04T19:42:54;5.30;99.90
13405;DHT22;6773;51.192;7.024;2023-03-04T19:45:21;5.30;99.90
13405;DHT22;6773;51.192;7.024;2023-03-04T19:47:46;5.30;99.90
13405;DHT22;6773;51.192;7.024;2023-03-04T19:50:12;5.20;99.90
13405;DHT22;6773;51.192;7.024;2023-03-04T19:55:05;5.20;99.90
13405;DHT22;6773;51.192;7.024;2023-03-04T19:57:31;5.20;99.90
13405;DHT22;6773;51.192;7.024;2023-03-04T19:59:57;5.20;99.90
13405;DHT22;6773;51.192;7.024;2023-03-04T20:02:23;5.10;99.90
13405;DHT22;6773;51.192;7.024;2023-03-04T20:04:48;5.20;99.90
13405;DHT22;6773;51.192;7.024;2023-03-04T20:07:14;5.10;99.90
13405;DHT22;6773;51.192;7.024;2023-03-04T20:09:40;5.20;99.90
13405;DHT22;6773;51.192;7.024;2023-03-04T20:14:33;5.10;99.90